sensor_id;sensor_type;location;lat;lon;timestamp;temperature;humidity
36594;DHT22;22603;47.900;8.146;2024-01-16T00:00:48;-7.90;99.90
36594;DHT22;22603;47.900;8.146;2024-01-16T00:03:34;-8.00;99.90
36594;DHT22;22603;47.900;8.146;2024-01-16T00:06:22;-8.10;99.90
36594;DHT22;22603;47.900;8.146;2024-01-16T00:09:09;-8.20;99.90
36594;DHT22;22603;47.900;8.146;2024-01-16T00:11:56;-8.20;99.90
36594;DHT22;22603;47.900;8.146;2024-01-16T00:14:43;-8.30;99.90
36594;DHT22;22603;47.900;8.146;2024-01-16T00:17:30;-8.30;99.90
36594;DHT22;22603;47.900;8.146;2024-01-16T00:20:17;-8.40;99.90
36594;DHT22;22603;47.900;8.146;2024-01-16T00:23:05;-8.50;99.90
36594;DHT22;22603;47.900;8.146;2024-01-16T00:25:52;-8.60;99.90
36594;DHT22;22603;47.900;8.146;2024-01-16T00:28:43;-8.60;99.90
36594;DHT22;22603;47.900;8.146;2024-01-16T00:31:29;-8.70;99.90
36594;DHT22;22603;47.900;8.146;2024-01-16T00:34:16;-8.70;99.90
36594;DHT22;22603;47.900;8.146;2024-01-16T00:37:03;-8.80;99.90
36594;DHT22;22603;47.900;8.146;2024-01-16T00:39:52;-8.80;99.90
36594;DHT22;22603;47.900;8.146;2024-01-16T00:42:39;-8.90;99.90
36594;DHT22;22603;47.900;8.146;2024-01-16T00:45:25;-9.00;99.90
36594;DHT22;22603;47.900;8.146;2024-01-16T00:48:12;-9.00;99.90
36594;DHT22;22603;47.900;8.146;2024-01-16T00:50:59;-9.10;99.90
36594;DHT22;22603;47.900;8.146;2024-01-16T00:53:46;-9.20;99.90
36594;DHT22;22603;47.900;8.146;2024-01-16T00:56:35;-9.20;99.90
36594;DHT22;22603;47.900;8.146;2024-01-16T00:59:22;-9.30;99.90
36594;DHT22;22603;47.900;8.146;2024-01-16T01:02:08;-9.30;99.90
36594;DHT22;22603;47.900;8.146;2024-01-16T01:04:57;-9.40;99.90
36594;DHT22;22603;47.900;8.146;2024-01-16T01:07:44;-9.40;99.90
36594;DHT22;22603;47.900;8.146;2024-01-16T01:10:30;-9.50;99.90
36594;DHT22;22603;47.900;8.146;2024-01-16T01:13:18;-9.50;99.90
36594;DHT22;22603;47.900;8.146;2024-01-16T01:16:05;-9.50;99.90
36594;DHT22;22603;47.900;8.146;2024-01-16T01:18:53;-9.60;99.90
36594;DHT22;22603;47.900;8.146;2024-01-16T01:21:40;-9.60;99.90
36594;DHT22;22603;47.900;8.146;2024-01-16T01:24:26;-9.70;99.90
36594;DHT22;22603;47.900;8.146;2024-01-16T01:27:13;-9.70;99.90
36594;DHT22;22603;47.900;8.146;2024-01-16T01:30:01;-9.80;99.90
36594;DHT22;22603;47.900;8.146;2024-01-16T01:32:49;-9.80;99.90
36594;DHT22;22603;47.900;8.146;2024-01-16T01:35:36;-9.80;99.90
36594;DHT22;22603;47.900;8.146;2024-01-16T01:38:22;-9.90;99.90
36594;DHT22;22603;47.900;8.146;2024-01-16T01:41:09;-9.90;99.90
36594;DHT22;22603;47.900;8.146;2024-01-16T01:43:57;-9.90;99.90
36594;DHT22;22603;47.900;8.146;2024-01-16T01:46:45;-10.00;99.90
36594;DHT22;22603;47.900;8.146;2024-01-16T01:49:32;-10.20;99.90
36594;DHT22;22603;47.900;8.146;2024-01-16T01:52:19;-10.20;99.90
36594;DHT22;22603;47.900;8.146;2024-01-16T01:55:10;-10.20;99.90
36594;DHT22;22603;47.900;8.146;2024-01-16T01:57:57;-10.30;99.90
36594;DHT22;22603;47.900;8.146;2024-01-16T02:00:44;-10.30;99.90
36594;DHT22;22603;47.900;8.146;2024-01-16T02:03:38;-10.30;99.90
36594;DHT22;22603;47.900;8.146;2024-01-16T02:06:25;-10.20;99.90
36594;DHT22;22603;47.900;8.146;2024-01-16T02:09:13;-10.20;99.90
36594;DHT22;22603;47.900;8.146;2024-01-16T02:12:00;-10.30;99.90
36594;DHT22;22603;47.900;8.146;2024-01-16T02:14:46;-10.30;99.90
36594;DHT22;22603;47.900;8.146;2024-01-16T02:17:33;-10.30;99.90
36594;DHT22;22603;47.900;8.146;2024-01-16T02:20:21;-10.30;99.90
36594;DHT22;22603;47.900;8.146;2024-01-16T02:23:10;-10.40;99.90
36594;DHT22;22603;47.900;8.146;2024-01-16T02:26:00;-10.40;99.90
36594;DHT22;22603;47.900;8.146;2024-01-16T02:28:47;-10.40;99.90
36594;DHT22;22603;47.900;8.146;2024-01-16T02:31:34;-10.40;99.90
36594;DHT22;22603;47.900;8.146;2024-01-16T02:34:21;-10.40;99.90
36594;DHT22;22603;47.900;8.146;2024-01-16T02:37:08;-10.40;99.90
36594;DHT22;22603;47.900;8.146;2024-01-16T02:39:55;-10.40;99.90
36594;DHT22;22603;47.900;8.146;2024-01-16T02:42:44;-10.40;99.90
36594;DHT22;22603;47.900;8.146;2024-01-16T02:45:31;-10.50;99.90
36594;DHT22;22603;47.900;8.146;2024-01-16T02:48:17;-10.50;99.90
36594;DHT22;22603;47.900;8.146;2024-01-16T02:51:05;-10.50;99.90
36594;DHT22;22603;47.900;8.146;2024-01-16T02:53:51;-10.50;99.90
36594;DHT22;22603;47.900;8.146;2024-01-16T02:56:38;-10.60;99.90
36594;DHT22;22603;47.900;8.146;2024-01-16T02:59:26;-10.60;99.90
36594;DHT22;22603;47.900;8.146;2024-01-16T03:02:14;-10.70;99.90
36594;DHT22;22603;47.900;8.146;2024-01-16T03:05:03;-10.90;99.90
36594;DHT22;22603;47.900;8.146;2024-01-16T03:07:50;-10.80;99.90
36594;DHT22;22603;47.900;8.146;2024-01-16T03:10:37;-10.80;99.90
36594;DHT22;22603;47.900;8.146;2024-01-16T03:13:24;-10.80;99.90
36594;DHT22;22603;47.900;8.146;2024-01-16T03:16:12;-10.90;99.90
36594;DHT22;22603;47.900;8.146;2024-01-16T03:18:58;-10.90;99.90
36594;DHT22;22603;47.900;8.146;2024-01-16T03:21:45;-11.00;99.90
36594;DHT22;22603;47.900;8.146;2024-01-16T03:24:32;-11.00;99.90
36594;DHT22;22603;47.900;8.146;2024-01-16T03:27:19;-11.00;99.90
36594;DHT22;22603;47.900;8.146;2024-01-16T03:30:07;-11.00;99.90
36594;DHT22;22603;47.900;8.146;2024-01-16T03:32:55;-11.10;99.90
36594;DHT22;22603;47.900;8.146;2024-01-16T03:35:42;-11.10;99.90
36594;DHT22;22603;47.900;8.146;2024-01-16T03:38:30;-11.10;99.90
36594;DHT22;22603;47.900;8.146;2024-01-16T03:41:16;-11.10;99.90
36594;DHT22;22603;47.900;8.146;2024-01-16T03:47:08;-11.10;99.90
36594;DHT22;22603;47.900;8.146;2024-01-16T03:49:57;-11.10;99.90
36594;DHT22;22603;47.900;8.146;2024-01-16T03:52:43;-11.10;99.90
36594;DHT22;22603;47.900;8.146;2024-01-16T03:55:30;-11.20;99.90
36594;DHT22;22603;47.900;8.146;2024-01-16T03:58:17;-11.20;99.90
36594;DHT22;22603;47.900;8.146;2024-01-16T04:01:04;-11.30;99.90
36594;DHT22;22603;47.900;8.146;2024-01-16T04:03:50;-11.20;99.90
36594;DHT22;22603;47.900;8.146;2024-01-16T04:06:38;-11.20;99.90
36594;DHT22;22603;47.900;8.146;2024-01-16T04:09:25;-11.20;99.90
36594;DHT22;22603;47.900;8.146;2024-01-16T04:12:12;-11.20;99.90
36594;DHT22;22603;47.900;8.146;2024-01-16T04:14:58;-11.20;99.90
36594;DHT22;22603;47.900;8.146;2024-01-16T04:17:45;-11.20;99.90
36594;DHT22;22603;47.900;8.146;2024-01-16T04:20:32;-11.20;99.90
36594;DHT22;22603;47.900;8.146;2024-01-16T04:23:20;-11.10;99.90
36594;DHT22;22603;47.900;8.146;2024-01-16T04:26:07;-11.10;99.90
36594;DHT22;22603;47.900;8.146;2024-01-16T04:28:54;-11.20;99.90
36594;DHT22;22603;47.900;8.146;2024-01-16T04:31:41;-11.20;99.90
36594;DHT22;22603;47.900;8.146;2024-01-16T04:34:28;-11.20;99.90
36594;DHT22;22603;47.900;8.146;2024-01-16T04:37:15;-11.30;99.90
36594;DHT22;22603;47.900;8.146;2024-01-16T04:40:03;-11.30;99.90
36594;DHT22;22603;47.900;8.146;2024-01-16T04:42:50;-11.30;99.90
36594;DHT22;22603;47.900;8.146;2024-01-16T04:45:37;-11.30;99.90
36594;DHT22;22603;47.900;8.146;2024-01-16T04:48:23;-11.30;99.90
36594;DHT22;22603;47.900;8.146;2024-01-16T04:51:10;-11.40;99.90
36594;DHT22;22603;47.900;8.146;2024-01-16T04:53:57;-11.40;99.90
36594;DHT22;22603;47.900;8.146;2024-01-16T04:56:45;-11.30;99.90
36594;DHT22;22603;47.900;8.146;2024-01-16T04:59:32;-11.40;99.90
36594;DHT22;22603;47.900;8.146;2024-01-16T05:02:19;-11.40;99.90
36594;DHT22;22603;47.900;8.146;2024-01-16T05:05:06;-11.40;99.90
36594;DHT22;22603;47.900;8.146;2024-01-16T05:07:53;-11.40;99.90
36594;DHT22;22603;47.900;8.146;2024-01-16T05:10:40;-11.40;99.90
36594;DHT22;22603;47.900;8.146;2024-01-16T05:13:31;-11.40;99.90
36594;DHT22;22603;47.900;8.146;2024-01-16T05:16:17;-11.40;99.90
36594;DHT22;22603;47.900;8.146;2024-01-16T05:19:04;-11.40;99.90
36594;DHT22;22603;47.900;8.146;2024-01-16T05:21:51;-11.50;99.90
36594;DHT22;22603;47.900;8.146;2024-01-16T05:24:38;-11.40;99.90
36594;DHT22;22603;47.900;8.146;2024-01-16T05:27:24;-11.40;99.90
36594;DHT22;22603;47.900;8.146;2024-01-16T05:30:13;-11.40;99.90
36594;DHT22;22603;47.900;8.146;2024-01-16T05:33:00;-11.40;99.90
36594;DHT22;22603;47.900;8.146;2024-01-16T05:35:47;-11.40;99.90
36594;DHT22;22603;47.900;8.146;2024-01-16T05:38:34;-11.40;99.90
36594;DHT22;22603;47.900;8.146;2024-01-16T05:41:20;-11.40;99.90
36594;DHT22;22603;47.900;8.146;2024-01-16T05:44:07;-11.40;99.90
36594;DHT22;22603;47.900;8.146;2024-01-16T05:46:55;-11.40;99.90
36594;DHT22;22603;47.900;8.146;2024-01-16T05:49:42;-11.50;99.90
36594;DHT22;22603;47.900;8.146;2024-01-16T05:52:29;-11.50;99.90
36594;DHT22;22603;47.900;8.146;2024-01-16T05:55:15;-11.50;99.90
36594;DHT22;22603;47.900;8.146;2024-01-16T05:58:03;-11.50;99.90
36594;DHT22;22603;47.900;8.146;2024-01-16T06:00:50;-11.50;99.90
36594;DHT22;22603;47.900;8.146;2024-01-16T06:03:38;-11.60;99.90
36594;DHT22;22603;47.900;8.146;2024-01-16T06:06:25;-11.60;99.90
36594;DHT22;22603;47.900;8.146;2024-01-16T06:09:11;-11.60;99.90
36594;DHT22;22603;47.900;8.146;2024-01-16T06:11:59;-11.60;99.90
36594;DHT22;22603;47.900;8.146;2024-01-16T06:14:46;-11.50;99.90
36594;DHT22;22603;47.900;8.146;2024-01-16T06:17:33;-11.60;99.90
36594;DHT22;22603;47.900;8.146;2024-01-16T06:20:21;-11.60;99.90
36594;DHT22;22603;47.900;8.146;2024-01-16T06:23:10;-11.60;99.90
36594;DHT22;22603;47.900;8.146;2024-01-16T06:25:57;-11.70;99.90
36594;DHT22;22603;47.900;8.146;2024-01-16T06:28:43;-11.70;99.90
36594;DHT22;22603;47.900;8.146;2024-01-16T06:31:30;-11.80;99.90
36594;DHT22;22603;47.900;8.146;2024-01-16T06:34:17;-11.80;99.90
36594;DHT22;22603;47.900;8.146;2024-01-16T06:37:05;-11.80;99.90
36594;DHT22;22603;47.900;8.146;2024-01-16T06:39:52;-11.90;99.90
36594;DHT22;22603;47.900;8.146;2024-01-16T06:42:38;-11.90;99.90
36594;DHT22;22603;47.900;8.146;2024-01-16T06:45:25;-12.00;99.90
36594;DHT22;22603;47.900;8.146;2024-01-16T06:48:12;-12.00;99.90
36594;DHT22;22603;47.900;8.146;2024-01-16T06:50:59;-12.10;99.90
36594;DHT22;22603;47.900;8.146;2024-01-16T06:53:48;-12.10;99.90
36594;DHT22;22603;47.900;8.146;2024-01-16T06:56:34;-12.10;99.90
36594;DHT22;22603;47.900;8.146;2024-01-16T06:59:21;-12.20;99.90
36594;DHT22;22603;47.900;8.146;2024-01-16T07:02:08;-12.10;99.90
36594;DHT22;22603;47.900;8.146;2024-01-16T07:04:55;-12.10;99.90
36594;DHT22;22603;47.900;8.146;2024-01-16T07:07:45;-12.10;99.90
36594;DHT22;22603;47.900;8.146;2024-01-16T07:10:32;-12.10;99.90
36594;DHT22;22603;47.900;8.146;2024-01-16T07:13:19;-12.00;99.90
36594;DHT22;22603;47.900;8.146;2024-01-16T07:16:06;-12.00;99.90
36594;DHT22;22603;47.900;8.146;2024-01-16T07:18:55;-12.00;99.90
36594;DHT22;22603;47.900;8.146;2024-01-16T07:21:42;-11.90;99.90
36594;DHT22;22603;47.900;8.146;2024-01-16T07:24:30;-11.90;99.90
36594;DHT22;22603;47.900;8.146;2024-01-16T07:27:18;-11.90;99.90
36594;DHT22;22603;47.900;8.146;2024-01-16T07:30:07;-11.90;99.90
36594;DHT22;22603;47.900;8.146;2024-01-16T07:32:54;-11.90;99.90
36594;DHT22;22603;47.900;8.146;2024-01-16T07:35:42;-11.80;99.90
36594;DHT22;22603;47.900;8.146;2024-01-16T07:38:33;-11.70;99.90
36594;DHT22;22603;47.900;8.146;2024-01-16T07:41:21;-11.70;99.90
36594;DHT22;22603;47.900;8.146;2024-01-16T07:44:10;-11.70;99.90
36594;DHT22;22603;47.900;8.146;2024-01-16T07:46:56;-11.60;99.90
36594;DHT22;22603;47.900;8.146;2024-01-16T07:49:43;-11.50;99.90
36594;DHT22;22603;47.900;8.146;2024-01-16T07:52:30;-11.50;99.90
36594;DHT22;22603;47.900;8.146;2024-01-16T07:55:16;-11.40;99.90
36594;DHT22;22603;47.900;8.146;2024-01-16T07:58:08;-11.30;99.90
36594;DHT22;22603;47.900;8.146;2024-01-16T08:00:56;-11.30;99.90
36594;DHT22;22603;47.900;8.146;2024-01-16T08:03:43;-11.20;99.90
36594;DHT22;22603;47.900;8.146;2024-01-16T08:06:29;-11.10;99.90
36594;DHT22;22603;47.900;8.146;2024-01-16T08:09:17;-10.90;99.90
36594;DHT22;22603;47.900;8.146;2024-01-16T08:12:04;-11.00;99.90
36594;DHT22;22603;47.900;8.146;2024-01-16T08:14:51;-11.00;99.90
36594;DHT22;22603;47.900;8.146;2024-01-16T08:17:39;-11.00;99.90
36594;DHT22;22603;47.900;8.146;2024-01-16T08:20:26;-10.40;99.90
36594;DHT22;22603;47.900;8.146;2024-01-16T08:23:13;-8.80;99.90
36594;DHT22;22603;47.900;8.146;2024-01-16T08:26:00;-7.70;99.90
36594;DHT22;22603;47.900;8.146;2024-01-16T08:28:47;-6.30;99.90
36594;DHT22;22603;47.900;8.146;2024-01-16T08:31:34;-6.40;99.90
36594;DHT22;22603;47.900;8.146;2024-01-16T08:34:22;-6.30;99.90
36594;DHT22;22603;47.900;8.146;2024-01-16T08:37:11;-5.60;99.90
36594;DHT22;22603;47.900;8.146;2024-01-16T08:40:04;-5.40;99.90
36594;DHT22;22603;47.900;8.146;2024-01-16T08:42:52;-5.70;99.90
36594;DHT22;22603;47.900;8.146;2024-01-16T08:45:44;-5.00;99.90
36594;DHT22;22603;47.900;8.146;2024-01-16T08:48:35;-4.40;99.90
36594;DHT22;22603;47.900;8.146;2024-01-16T08:51:25;-3.80;99.90
36594;DHT22;22603;47.900;8.146;2024-01-16T08:54:12;-4.10;99.90
36594;DHT22;22603;47.900;8.146;2024-01-16T08:56:59;-4.70;99.90
36594;DHT22;22603;47.900;8.146;2024-01-16T08:59:46;-3.70;99.90
36594;DHT22;22603;47.900;8.146;2024-01-16T09:02:33;-2.30;99.90
36594;DHT22;22603;47.900;8.146;2024-01-16T09:05:20;-0.90;99.90
36594;DHT22;22603;47.900;8.146;2024-01-16T09:08:12;-0.10;99.90
36594;DHT22;22603;47.900;8.146;2024-01-16T09:10:59;1.20;99.90
36594;DHT22;22603;47.900;8.146;2024-01-16T09:13:46;1.90;99.90
36594;DHT22;22603;47.900;8.146;2024-01-16T09:16:33;1.80;99.90
36594;DHT22;22603;47.900;8.146;2024-01-16T09:19:19;1.70;99.90
36594;DHT22;22603;47.900;8.146;2024-01-16T09:22:07;-0.40;99.90
36594;DHT22;22603;47.900;8.146;2024-01-16T09:24:55;-0.80;99.90
36594;DHT22;22603;47.900;8.146;2024-01-16T09:27:42;0.20;99.90
36594;DHT22;22603;47.900;8.146;2024-01-16T09:30:29;0.00;99.90
36594;DHT22;22603;47.900;8.146;2024-01-16T09:33:15;-0.90;99.90
36594;DHT22;22603;47.900;8.146;2024-01-16T09:36:03;-1.10;99.90
36594;DHT22;22603;47.900;8.146;2024-01-16T09:38:50;-1.50;99.90
36594;DHT22;22603;47.900;8.146;2024-01-16T09:41:38;0.40;99.90
36594;DHT22;22603;47.900;8.146;2024-01-16T09:44:24;1.50;99.90
36594;DHT22;22603;47.900;8.146;2024-01-16T09:47:12;2.60;99.90
36594;DHT22;22603;47.900;8.146;2024-01-16T09:49:59;0.90;99.90
36594;DHT22;22603;47.900;8.146;2024-01-16T09:52:49;-0.90;99.90
36594;DHT22;22603;47.900;8.146;2024-01-16T09:55:35;-1.50;99.90
36594;DHT22;22603;47.900;8.146;2024-01-16T09:58:23;-0.60;99.90
36594;DHT22;22603;47.900;8.146;2024-01-16T10:01:11;-0.60;99.90
36594;DHT22;22603;47.900;8.146;2024-01-16T10:03:59;-0.90;99.90
36594;DHT22;22603;47.900;8.146;2024-01-16T10:06:47;-1.60;99.90
36594;DHT22;22603;47.900;8.146;2024-01-16T10:09:35;-1.70;99.90
36594;DHT22;22603;47.900;8.146;2024-01-16T10:12:22;-2.30;99.90
36594;DHT22;22603;47.900;8.146;2024-01-16T10:15:11;-1.00;99.90
36594;DHT22;22603;47.900;8.146;2024-01-16T10:18:00;-0.90;99.90
36594;DHT22;22603;47.900;8.146;2024-01-16T10:20:47;-0.30;99.90
36594;DHT22;22603;47.900;8.146;2024-01-16T10:23:34;0.10;99.90
36594;DHT22;22603;47.900;8.146;2024-01-16T10:26:22;-0.30;99.90
36594;DHT22;22603;47.900;8.146;2024-01-16T10:29:09;-0.80;99.90
36594;DHT22;22603;47.900;8.146;2024-01-16T10:31:57;0.40;99.90
36594;DHT22;22603;47.900;8.146;2024-01-16T10:34:45;-0.80;99.90
36594;DHT22;22603;47.900;8.146;2024-01-16T10:37:41;-1.70;99.90
36594;DHT22;22603;47.900;8.146;2024-01-16T10:40:28;-2.10;99.90
36594;DHT22;22603;47.900;8.146;2024-01-16T10:43:17;-1.60;99.90
36594;DHT22;22603;47.900;8.146;2024-01-16T10:46:09;-2.00;99.90
36594;DHT22;22603;47.900;8.146;2024-01-16T10:49:02;-1.50;99.90
36594;DHT22;22603;47.900;8.146;2024-01-16T10:51:52;-1.30;99.90
36594;DHT22;22603;47.900;8.146;2024-01-16T10:54:42;-1.30;99.90
36594;DHT22;22603;47.900;8.146;2024-01-16T10:57:32;-1.20;99.90
36594;DHT22;22603;47.900;8.146;2024-01-16T11:00:19;-0.40;99.90
36594;DHT22;22603;47.900;8.146;2024-01-16T11:03:09;-0.80;99.90
36594;DHT22;22603;47.900;8.146;2024-01-16T11:06:01;-1.10;99.90
36594;DHT22;22603;47.900;8.146;2024-01-16T11:08:49;-1.10;99.90
36594;DHT22;22603;47.900;8.146;2024-01-16T11:11:37;-1.10;99.90
36594;DHT22;22603;47.900;8.146;2024-01-16T11:14:27;-0.10;99.90
36594;DHT22;22603;47.900;8.146;2024-01-16T11:17:15;0.00;99.90
36594;DHT22;22603;47.900;8.146;2024-01-16T11:20:06;-0.50;99.90
36594;DHT22;22603;47.900;8.146;2024-01-16T11:23:19;-0.20;99.90
36594;DHT22;22603;47.900;8.146;2024-01-16T11:26:26;0.60;99.90
36594;DHT22;22603;47.900;8.146;2024-01-16T11:29:35;-0.50;99.90
36594;DHT22;22603;47.900;8.146;2024-01-16T11:32:36;-0.50;99.90
36594;DHT22;22603;47.900;8.146;2024-01-16T11:35:32;-0.70;99.90
36594;DHT22;22603;47.900;8.146;2024-01-16T11:38:27;-0.60;99.90
36594;DHT22;22603;47.900;8.146;2024-01-16T11:41:48;-1.10;99.90
36594;DHT22;22603;47.900;8.146;2024-01-16T11:44:45;-0.30;99.90
36594;DHT22;22603;47.900;8.146;2024-01-16T11:47:34;-0.10;99.90
36594;DHT22;22603;47.900;8.146;2024-01-16T11:50:27;0.20;99.90
36594;DHT22;22603;47.900;8.146;2024-01-16T11:53:38;0.00;99.90
36594;DHT22;22603;47.900;8.146;2024-01-16T11:57:00;0.20;99.90
36594;DHT22;22603;47.900;8.146;2024-01-16T11:59:59;0.80;99.90
36594;DHT22;22603;47.900;8.146;2024-01-16T12:02:52;1.90;99.90
36594;DHT22;22603;47.900;8.146;2024-01-16T12:05:39;2.90;99.90
36594;DHT22;22603;47.900;8.146;2024-01-16T12:08:27;3.80;99.90
36594;DHT22;22603;47.900;8.146;2024-01-16T12:11:19;3.30;99.90
36594;DHT22;22603;47.900;8.146;2024-01-16T12:14:14;2.00;99.90
36594;DHT22;22603;47.900;8.146;2024-01-16T12:17:10;1.80;99.90
36594;DHT22;22603;47.900;8.146;2024-01-16T12:19:58;1.80;99.90
36594;DHT22;22603;47.900;8.146;2024-01-16T12:22:45;1.20;99.90
36594;DHT22;22603;47.900;8.146;2024-01-16T12:25:33;1.60;99.90
36594;DHT22;22603;47.900;8.146;2024-01-16T12:28:41;1.90;99.90
36594;DHT22;22603;47.900;8.146;2024-01-16T12:31:29;1.90;99.90
36594;DHT22;22603;47.900;8.146;2024-01-16T12:34:16;0.30;99.90
36594;DHT22;22603;47.900;8.146;2024-01-16T12:37:06;0.50;99.90
36594;DHT22;22603;47.900;8.146;2024-01-16T12:39:55;0.50;99.90
36594;DHT22;22603;47.900;8.146;2024-01-16T12:42:43;0.60;99.90
36594;DHT22;22603;47.900;8.146;2024-01-16T12:45:31;0.40;99.90
36594;DHT22;22603;47.900;8.146;2024-01-16T12:48:22;0.70;99.90
36594;DHT22;22603;47.900;8.146;2024-01-16T12:51:09;0.70;99.90
36594;DHT22;22603;47.900;8.146;2024-01-16T12:54:11;0.90;99.90
36594;DHT22;22603;47.900;8.146;2024-01-16T12:56:58;0.60;99.90
36594;DHT22;22603;47.900;8.146;2024-01-16T12:59:46;1.20;99.90
36594;DHT22;22603;47.900;8.146;2024-01-16T13:02:37;1.30;99.90
36594;DHT22;22603;47.900;8.146;2024-01-16T13:05:24;1.40;99.90
36594;DHT22;22603;47.900;8.146;2024-01-16T13:08:17;1.40;99.90
36594;DHT22;22603;47.900;8.146;2024-01-16T13:11:06;1.40;99.90
36594;DHT22;22603;47.900;8.146;2024-01-16T13:14:01;1.30;99.90
36594;DHT22;22603;47.900;8.146;2024-01-16T13:16:49;1.40;99.90
36594;DHT22;22603;47.900;8.146;2024-01-16T13:19:40;1.10;99.90
36594;DHT22;22603;47.900;8.146;2024-01-16T13:22:27;0.70;99.90
36594;DHT22;22603;47.900;8.146;2024-01-16T13:25:29;0.20;99.90
36594;DHT22;22603;47.900;8.146;2024-01-16T13:28:26;0.60;99.90
36594;DHT22;22603;47.900;8.146;2024-01-16T13:31:13;0.90;99.90
36594;DHT22;22603;47.900;8.146;2024-01-16T13:34:04;1.10;99.90
36594;DHT22;22603;47.900;8.146;2024-01-16T13:37:00;1.10;99.90
36594;DHT22;22603;47.900;8.146;2024-01-16T13:40:01;0.90;99.90
36594;DHT22;22603;47.900;8.146;2024-01-16T13:42:51;0.40;99.90
36594;DHT22;22603;47.900;8.146;2024-01-16T13:45:45;0.10;99.90
36594;DHT22;22603;47.900;8.146;2024-01-16T13:48:35;0.30;99.90
36594;DHT22;22603;47.900;8.146;2024-01-16T13:51:24;0.50;99.90
36594;DHT22;22603;47.900;8.146;2024-01-16T13:54:12;0.10;99.90
36594;DHT22;22603;47.900;8.146;2024-01-16T13:56:59;-0.20;99.90
36594;DHT22;22603;47.900;8.146;2024-01-16T13:59:54;0.00;99.90
36594;DHT22;22603;47.900;8.146;2024-01-16T14:02:43;0.10;99.90
36594;DHT22;22603;47.900;8.146;2024-01-16T14:05:31;0.10;99.90
36594;DHT22;22603;47.900;8.146;2024-01-16T14:08:18;0.00;99.90
36594;DHT22;22603;47.900;8.146;2024-01-16T14:11:09;-0.20;99.90
36594;DHT22;22603;47.900;8.146;2024-01-16T14:13:56;-0.40;99.90
36594;DHT22;22603;47.900;8.146;2024-01-16T14:16:44;-0.40;99.90
36594;DHT22;22603;47.900;8.146;2024-01-16T14:19:45;-0.40;99.90
36594;DHT22;22603;47.900;8.146;2024-01-16T14:22:40;-0.40;99.90
36594;DHT22;22603;47.900;8.146;2024-01-16T14:25:33;-0.60;99.90
36594;DHT22;22603;47.900;8.146;2024-01-16T14:28:23;-0.70;99.90
36594;DHT22;22603;47.900;8.146;2024-01-16T14:31:16;-0.80;99.90
36594;DHT22;22603;47.900;8.146;2024-01-16T14:34:05;-0.80;99.90
36594;DHT22;22603;47.900;8.146;2024-01-16T14:36:54;-0.80;99.90
36594;DHT22;22603;47.900;8.146;2024-01-16T14:39:42;-1.00;99.90
36594;DHT22;22603;47.900;8.146;2024-01-16T14:42:31;-1.10;99.90
36594;DHT22;22603;47.900;8.146;2024-01-16T14:45:23;-1.10;99.90
36594;DHT22;22603;47.900;8.146;2024-01-16T14:48:12;-1.20;99.90
36594;DHT22;22603;47.900;8.146;2024-01-16T14:51:01;-1.40;99.90
36594;DHT22;22603;47.900;8.146;2024-01-16T14:53:51;-1.40;99.90
36594;DHT22;22603;47.900;8.146;2024-01-16T14:56:38;-1.50;99.90
36594;DHT22;22603;47.900;8.146;2024-01-16T14:59:27;-1.80;99.90
36594;DHT22;22603;47.900;8.146;2024-01-16T15:02:24;-2.00;99.90
36594;DHT22;22603;47.900;8.146;2024-01-16T15:05:14;-2.00;99.90
36594;DHT22;22603;47.900;8.146;2024-01-16T15:08:12;-2.20;99.90
36594;DHT22;22603;47.900;8.146;2024-01-16T15:11:03;-2.30;99.90
36594;DHT22;22603;47.900;8.146;2024-01-16T15:13:53;-2.30;99.90
36594;DHT22;22603;47.900;8.146;2024-01-16T15:16:44;-2.40;99.90
36594;DHT22;22603;47.900;8.146;2024-01-16T15:19:37;-2.50;99.90
36594;DHT22;22603;47.900;8.146;2024-01-16T15:22:26;-2.50;99.90
36594;DHT22;22603;47.900;8.146;2024-01-16T15:25:14;-2.80;99.90
36594;DHT22;22603;47.900;8.146;2024-01-16T15:28:02;-2.90;99.90
36594;DHT22;22603;47.900;8.146;2024-01-16T15:30:50;-3.10;99.90
36594;DHT22;22603;47.900;8.146;2024-01-16T15:33:38;-3.20;99.90
36594;DHT22;22603;47.900;8.146;2024-01-16T15:36:31;-3.40;99.90
36594;DHT22;22603;47.900;8.146;2024-01-16T15:39:18;-3.60;99.90
36594;DHT22;22603;47.900;8.146;2024-01-16T15:42:08;-3.60;99.90
36594;DHT22;22603;47.900;8.146;2024-01-16T15:44:57;-3.70;99.90
36594;DHT22;22603;47.900;8.146;2024-01-16T15:47:44;-3.60;99.90
36594;DHT22;22603;47.900;8.146;2024-01-16T15:50:32;-3.80;99.90
36594;DHT22;22603;47.900;8.146;2024-01-16T15:53:21;-3.90;99.90
36594;DHT22;22603;47.900;8.146;2024-01-16T15:56:08;-3.90;99.90
36594;DHT22;22603;47.900;8.146;2024-01-16T15:58:56;-4.00;99.90
36594;DHT22;22603;47.900;8.146;2024-01-16T16:01:43;-4.10;99.90
36594;DHT22;22603;47.900;8.146;2024-01-16T16:04:31;-4.30;99.90
36594;DHT22;22603;47.900;8.146;2024-01-16T16:07:17;-4.30;99.90
36594;DHT22;22603;47.900;8.146;2024-01-16T16:10:09;-4.40;99.90
36594;DHT22;22603;47.900;8.146;2024-01-16T16:12:56;-4.50;99.90
36594;DHT22;22603;47.900;8.146;2024-01-16T16:15:45;-4.60;99.90
36594;DHT22;22603;47.900;8.146;2024-01-16T16:18:32;-4.80;99.90
36594;DHT22;22603;47.900;8.146;2024-01-16T16:21:23;-4.90;99.90
36594;DHT22;22603;47.900;8.146;2024-01-16T16:24:11;-5.10;99.90
36594;DHT22;22603;47.900;8.146;2024-01-16T16:27:00;-5.20;99.90
36594;DHT22;22603;47.900;8.146;2024-01-16T16:29:49;-5.20;99.90
36594;DHT22;22603;47.900;8.146;2024-01-16T16:32:37;-5.30;99.90
36594;DHT22;22603;47.900;8.146;2024-01-16T16:35:25;-5.40;99.90
36594;DHT22;22603;47.900;8.146;2024-01-16T16:38:12;-5.40;99.90
36594;DHT22;22603;47.900;8.146;2024-01-16T16:41:00;-5.50;99.90
36594;DHT22;22603;47.900;8.146;2024-01-16T16:43:52;-5.60;99.90
36594;DHT22;22603;47.900;8.146;2024-01-16T16:46:40;-5.60;99.90
36594;DHT22;22603;47.900;8.146;2024-01-16T16:49:27;-4.80;99.90
36594;DHT22;22603;47.900;8.146;2024-01-16T16:52:14;-5.90;99.90
36594;DHT22;22603;47.900;8.146;2024-01-16T16:55:01;-6.00;99.90
36594;DHT22;22603;47.900;8.146;2024-01-16T16:57:47;-6.00;99.90
36594;DHT22;22603;47.900;8.146;2024-01-16T17:00:37;-6.10;99.90
36594;DHT22;22603;47.900;8.146;2024-01-16T17:03:28;-6.10;99.90
36594;DHT22;22603;47.900;8.146;2024-01-16T17:06:16;-6.20;99.90
36594;DHT22;22603;47.900;8.146;2024-01-16T17:09:04;-6.20;99.90
36594;DHT22;22603;47.900;8.146;2024-01-16T17:11:52;-6.30;99.90
36594;DHT22;22603;47.900;8.146;2024-01-16T17:14:41;-6.40;99.90
36594;DHT22;22603;47.900;8.146;2024-01-16T17:17:30;-6.50;99.90
36594;DHT22;22603;47.900;8.146;2024-01-16T17:20:20;-6.60;99.90
36594;DHT22;22603;47.900;8.146;2024-01-16T17:23:08;-6.80;99.90
36594;DHT22;22603;47.900;8.146;2024-01-16T17:25:55;-6.70;99.90
36594;DHT22;22603;47.900;8.146;2024-01-16T17:28:43;-6.80;99.90
36594;DHT22;22603;47.900;8.146;2024-01-16T17:31:30;-6.90;99.90
36594;DHT22;22603;47.900;8.146;2024-01-16T17:34:19;-7.00;99.90
36594;DHT22;22603;47.900;8.146;2024-01-16T17:37:05;-7.10;99.90
36594;DHT22;22603;47.900;8.146;2024-01-16T17:39:52;-7.10;99.90
36594;DHT22;22603;47.900;8.146;2024-01-16T17:42:40;-7.10;99.90
36594;DHT22;22603;47.900;8.146;2024-01-16T17:45:28;-7.10;99.90